EST,Max TemperatureF,Mean TemperatureF,Min TemperatureF,Max Dew PointF,MeanDew PointF,Min DewpointF,Max Humidity, Mean Humidity, Min Humidity, Max Sea Level PressureIn, Mean Sea Level PressureIn, Min Sea Level PressureIn, Max VisibilityMiles, Mean VisibilityMiles, Min VisibilityMiles, Max Wind SpeedMPH, Mean Wind SpeedMPH, Max Gust SpeedMPH,PrecipitationIn, CloudCover, Events, WindDirDegrees
2012-11-1,55,48,42,40,39,37,86,70,53,29.60,29.56,29.49,10,10,10,18,4,23,0.00,5,,217
2012-11-2,51,46,42,40,37,34,86,73,57,29.64,29.60,29.57,10,10,10,12,6,17,0.05,5,Rain,263
2012-11-3,53,45,39,35,33,29,77,64,52,29.84,29.74,29.65,10,10,10,16,8,23,0.00,5,,285
2012-11-4,52,42,33,34,31,27,85,67,52,29.98,29.91,29.83,10,10,10,14,8,18,0.00,2,,291
2012-11-5,44,36,27,27,22,17,69,56,40,30.17,30.06,29.96,10,10,10,12,8,20,0.00,5,,321
2012-11-6,42,32,21,23,17,12,89,62,31,30.27,30.23,30.18,10,10,10,7,1,,0.00,0,,333
2012-11-7,36,32,28,28,24,18,93,71,48,30.21,29.96,29.76,10,6,1,24,12,34,0.03,8,Snow,13
2012-11-8,37,34,30,36,32,28,93,87,75,29.80,29.71,29.63,10,6,2,21,16,33,0.20,8,Rain-Snow,348
2012-11-9,53,44,34,31,25,21,76,54,29,30.14,29.97,29.80,10,10,10,17,12,25,0.00,2,,298
2012-11-10,53,40,28,33,28,24,88,65,35,30.50,30.32,30.13,10,10,10,9,4,,0.00,0,,296
2012-11-11,62,46,30,44,39,28,89,70,46,30.54,30.49,30.44,10,10,10,15,4,17,0.00,4,,203
2012-11-12,68,57,46,57,51,43,97,79,50,30.50,30.40,30.22,10,9,3,15,8,23,0.00,3,,185
2012-11-13,64,50,35,59,46,29,94,85,70,30.47,30.25,30.11,10,9,3,21,10,25,0.35,7,Rain,274
2012-11-14,46,37,28,29,24,21,79,63,39,30.58,30.53,30.47,10,10,10,12,5,17,0.00,1,,358
2012-11-15,44,37,30,29,26,23,92,72,47,30.51,30.43,30.35,10,10,10,12,6,,0.00,2,,11
2012-11-16,45,36,28,30,27,23,96,76,49,30.48,30.37,30.33,10,10,10,6,1,,0.00,0,,329
2012-11-17,48,36,24,30,26,21,92,75,44,30.71,30.62,30.48,10,10,5,6,1,,0.00,0,,356
2012-11-18,48,34,21,32,25,19,92,77,44,30.77,30.71,30.67,10,9,7,9,2,,0.00,0,,45
2012-11-19,48,36,23,33,26,19,93,80,54,30.66,30.46,30.28,10,8,2,7,1,,0.00,2,Fog,32
2012-11-20,48,34,19,32,26,18,93,78,50,30.30,30.23,30.13,10,10,2,7,1,,0.00,1,Fog,55
2012-11-21,50,39,28,38,32,26,96,82,55,30.31,30.26,30.20,10,9,5,12,2,,0.00,3,,30
2012-11-22,54,42,30,39,34,28,100,86,53,30.32,30.24,30.13,10,7,0,7,1,,0.00,2,Fog,123
2012-11-23,55,40,26,43,32,25,100,90,62,30.15,29.99,29.67,10,5,0,10,1,,0.00,3,Fog,198
2012-11-24,46,39,32,43,24,13,93,54,35,29.69,29.62,29.56,10,10,10,22,9,31,0.00,5,Rain,274
2012-11-25,37,32,28,21,16,9,64,51,33,29.90,29.80,29.70,10,10,10,20,11,31,0.00,3,,251
2012-11-26,44,34,25,23,21,17,81,57,35,30.28,30.08,29.90,10,10,10,20,9,26,0.00,2,,245
2012-11-27,36,31,26,34,30,22,100,90,72,30.37,30.29,30.23,10,4,1,6,1,,0.12,7,Rain-Snow,241
2012-11-28,37,30,24,30,25,19,93,79,59,30.25,30.20,30.16,10,10,4,8,5,,0.00,6,,341
2012-11-29,41,34,26,25,22,19,81,61,45,30.30,30.23,30.19,10,10,10,15,8,21,0.00,1,,241
2012-11-30,37,32,28,25,10,1,70,44,27,30.60,30.49,30.24,10,10,10,13,7,,0.00,7,,3